createdAt,value
2019-03-06T00:00:38.572Z,0
2019-03-06T00:01:39.050Z,0
2019-03-06T00:02:39.808Z,0
2019-03-06T00:03:40.569Z,0
2019-03-06T00:04:41.939Z,0
2019-03-06T00:05:42.203Z,0
2019-03-06T00:06:42.682Z,0
2019-03-06T00:07:44.069Z,0
2019-03-06T00:08:43.268Z,0
2019-03-06T00:09:43.737Z,0
2019-03-06T00:10:44.248Z,0
2019-03-06T00:11:45.007Z,0
2019-03-06T00:12:45.480Z,0
2019-03-06T00:13:46.565Z,0
2019-03-06T00:14:47.323Z,0
2019-03-06T00:15:48.170Z,0
2019-03-06T00:16:48.644Z,0
2019-03-06T00:17:50.299Z,0
2019-03-06T00:18:49.825Z,0
2019-03-06T00:19:50.295Z,0
2019-03-06T00:20:50.501Z,0
2019-03-06T00:21:51.815Z,0
2019-03-06T00:22:52.858Z,0
2019-03-06T00:23:53.250Z,0
2019-03-06T00:24:53.447Z,0
2019-03-06T00:25:53.852Z,0
2019-03-06T00:26:55.415Z,0
2019-03-06T00:27:56.169Z,0
2019-03-06T00:28:57.221Z,0
2019-03-06T00:29:58.263Z,0
2019-03-06T00:30:58.017Z,0
2019-03-06T00:31:59.051Z,0
2019-03-06T00:32:59.537Z,0
2019-03-06T00:34:00.005Z,0
2019-03-06T00:35:01.046Z,0
2019-03-06T00:36:01.809Z,0
2019-03-06T00:37:02.820Z,0
2019-03-06T00:38:02.855Z,0
2019-03-06T00:39:03.610Z,0
2019-03-06T00:40:04.926Z,0
2019-03-06T00:41:05.695Z,0
2019-03-06T00:42:06.727Z,0
2019-03-06T00:43:07.483Z,0
2019-03-06T00:44:08.232Z,0
2019-03-06T00:45:09.042Z,0
2019-03-06T00:46:09.538Z,0
2019-03-06T00:47:11.432Z,0
2019-03-06T00:48:11.105Z,0
2019-03-06T00:49:12.137Z,0
2019-03-06T00:50:13.448Z,0
2019-03-06T00:51:13.197Z,0
2019-03-06T00:52:13.428Z,0
2019-03-06T00:53:13.616Z,0
2019-03-06T00:54:14.133Z,0
2019-03-06T00:55:15.159Z,0
2019-03-06T00:56:15.516Z,0
2019-03-06T00:57:17.362Z,0
2019-03-06T00:58:16.929Z,0
2019-03-06T00:59:17.695Z,0
2019-03-06T01:00:18.747Z,0
2019-03-06T01:01:19.500Z,0
2019-03-06T01:02:20.307Z,0
2019-03-06T01:03:20.810Z,0
2019-03-06T01:04:21.279Z,0
2019-03-06T01:05:21.874Z,0
2019-03-06T01:06:23.055Z,0
2019-03-06T01:07:24.089Z,0
2019-03-06T01:08:23.879Z,0
2019-03-06T01:09:25.185Z,0
2019-03-06T01:10:25.947Z,0
2019-03-06T01:11:26.699Z,0
2019-03-06T01:12:26.894Z,0
2019-03-06T01:13:27.648Z,0
2019-03-06T01:14:28.677Z,0
2019-03-06T01:15:29.712Z,0
2019-03-06T01:16:31.484Z,0
2019-03-06T01:17:41.335Z,0
2019-03-06T01:18:41.545Z,0
2019-03-06T01:19:41.672Z,0
2019-03-06T01:20:41.881Z,0
2019-03-06T01:21:42.627Z,0
2019-03-06T01:22:43.101Z,0
2019-03-06T01:23:43.852Z,0
2019-03-06T01:24:44.331Z,0
2019-03-06T01:25:45.385Z,0
2019-03-06T01:26:45.413Z,0
2019-03-06T01:27:47.186Z,0
2019-03-06T01:28:47.611Z,0
2019-03-06T01:29:48.094Z,0
2019-03-06T01:30:49.116Z,0
2019-03-06T01:31:49.866Z,0
2019-03-06T01:32:50.346Z,0
2019-03-06T01:33:51.651Z,0
2019-03-06T01:34:52.691Z,0
2019-03-06T01:35:53.724Z,0
2019-03-06T01:36:53.947Z,0
2019-03-06T01:37:55.736Z,0
2019-03-06T01:38:55.134Z,0
2019-03-06T01:39:55.929Z,0
2019-03-06T01:40:56.961Z,0
2019-03-06T01:41:57.432Z,0
2019-03-06T01:42:58.188Z,0
2019-03-06T01:44:29.577Z,0
2019-03-06T01:45:30.349Z,0
2019-03-06T01:46:30.823Z,0
2019-03-06T01:47:31.631Z,0
2019-03-06T01:48:32.390Z,0
2019-03-06T01:49:33.460Z,0
2019-03-06T01:50:33.937Z,0
2019-03-06T01:51:34.818Z,0
2019-03-06T01:52:36.148Z,0
2019-03-06T01:53:36.616Z,0
2019-03-06T01:54:38.641Z,0
2019-03-06T01:55:38.598Z,0
2019-03-06T01:56:39.633Z,0
2019-03-06T01:57:40.670Z,0
2019-03-06T01:58:41.137Z,0
2019-03-06T01:59:41.886Z,0
2019-03-06T02:00:42.637Z,0
2019-03-06T02:01:43.943Z,0
2019-03-06T02:02:45.234Z,0
2019-03-06T02:03:45.011Z,0
2019-03-06T02:04:46.034Z,0
2019-03-06T02:05:46.523Z,0
2019-03-06T02:06:47.117Z,0
2019-03-06T02:07:47.596Z,0
2019-03-06T02:08:48.073Z,0
2019-03-06T02:09:48.547Z,0
2019-03-06T02:10:49.034Z,0
2019-03-06T02:11:49.784Z,0
2019-03-06T02:12:52.669Z,0
2019-03-06T02:13:52.007Z,0
2019-03-06T02:14:52.763Z,0
2019-03-06T02:15:53.526Z,0
2019-03-06T02:16:54.894Z,0
2019-03-06T02:17:55.379Z,0
2019-03-06T02:18:55.852Z,0
2019-03-06T02:19:56.613Z,0
2019-03-06T02:20:57.363Z,0
2019-03-06T02:21:58.141Z,0
2019-03-06T02:22:59.649Z,0
2019-03-06T02:24:00.253Z,0
2019-03-06T02:24:59.995Z,0
2019-03-06T02:26:00.956Z,0
2019-03-06T02:27:01.476Z,0
2019-03-06T02:28:02.233Z,0
2019-03-06T02:29:03.264Z,0
2019-03-06T02:30:04.351Z,0
2019-03-06T02:31:04.393Z,0
2019-03-06T02:32:05.760Z,0
2019-03-06T02:33:06.251Z,0
2019-03-06T02:34:06.742Z,0
2019-03-06T02:35:07.564Z,0
2019-03-06T02:36:08.858Z,0
2019-03-06T02:37:09.216Z,0
2019-03-06T02:38:10.602Z,0
2019-03-06T02:39:11.488Z,0
2019-03-06T02:40:12.668Z,0
2019-03-06T02:41:12.998Z,0
2019-03-06T02:42:14.082Z,0
2019-03-06T02:43:14.253Z,0
2019-03-06T02:44:16.187Z,0
2019-03-06T02:45:16.892Z,0
2019-03-06T02:46:17.686Z,0
2019-03-06T02:47:18.729Z,0
2019-03-06T02:48:18.770Z,0
2019-03-06T02:49:19.523Z,0
2019-03-06T02:50:21.220Z,0
2019-03-06T02:51:22.357Z,0
2019-03-06T02:52:23.081Z,0
2019-03-06T02:53:23.135Z,0
2019-03-06T02:54:24.473Z,0
2019-03-06T02:55:25.237Z,0
2019-03-06T02:56:26.342Z,0
2019-03-06T02:57:26.393Z,0
2019-03-06T02:58:27.743Z,0
2019-03-06T02:59:28.783Z,0
2019-03-06T03:00:29.004Z,0
2019-03-06T03:01:31.995Z,0
2019-03-06T03:02:32.148Z,0
2019-03-06T03:03:31.991Z,0
2019-03-06T03:04:33.065Z,0
2019-03-06T03:05:34.927Z,0
2019-03-06T03:06:34.817Z,0
2019-03-06T03:07:36.431Z,0
2019-03-06T03:08:36.779Z,0
2019-03-06T03:09:37.533Z,0
2019-03-06T03:10:39.156Z,0
2019-03-06T03:11:40.935Z,0
2019-03-06T03:12:40.571Z,0
2019-03-06T03:13:40.623Z,0
2019-03-06T03:14:41.675Z,0
2019-03-06T03:15:42.737Z,0
2019-03-06T03:16:44.131Z,0
2019-03-06T03:17:45.008Z,0
2019-03-06T03:18:45.962Z,0
2019-03-06T03:19:45.994Z,0
2019-03-06T03:20:47.378Z,0
2019-03-06T03:21:48.263Z,0
2019-03-06T03:22:48.275Z,0
2019-03-06T03:23:49.068Z,0
2019-03-06T03:24:49.569Z,0
2019-03-06T03:25:50.715Z,0
2019-03-06T03:26:51.600Z,0
2019-03-06T03:27:52.095Z,0
2019-03-06T03:28:52.973Z,0
2019-03-06T03:29:54.382Z,0
2019-03-06T03:30:56.063Z,0
2019-03-06T03:31:56.222Z,0
2019-03-06T03:32:57.008Z,0
2019-03-06T03:33:58.912Z,0
2019-03-06T03:34:59.737Z,0
2019-03-06T03:35:59.448Z,0
2019-03-06T03:36:59.828Z,0
2019-03-06T03:38:00.614Z,0
2019-03-06T03:39:01.681Z,0
2019-03-06T03:40:04.467Z,0
2019-03-06T03:41:04.629Z,0
2019-03-06T03:42:04.959Z,0
2019-03-06T03:43:06.047Z,0
2019-03-06T03:44:06.147Z,0
2019-03-06T03:45:08.075Z,0
2019-03-06T03:46:08.690Z,0
2019-03-06T03:47:09.203Z,0
2019-03-06T03:48:10.305Z,0
2019-03-06T03:49:11.635Z,0
2019-03-06T03:50:13.371Z,0
2019-03-06T03:51:11.994Z,0
2019-03-06T03:52:13.346Z,0
2019-03-06T03:53:13.657Z,0
2019-03-06T03:54:14.861Z,0
2019-03-06T03:55:14.959Z,0
2019-03-06T03:56:15.902Z,0
2019-03-06T03:57:17.542Z,0
2019-03-06T03:58:17.592Z,0
2019-03-06T03:59:19.473Z,0
2019-03-06T04:00:19.930Z,0
2019-03-06T04:01:20.824Z,0
2019-03-06T04:02:21.164Z,0
2019-03-06T04:03:22.563Z,0
2019-03-06T04:04:22.894Z,0
2019-03-06T04:05:23.928Z,0
2019-03-06T04:06:25.275Z,0
2019-03-06T04:07:25.637Z,0
2019-03-06T04:08:26.953Z,0
2019-03-06T04:09:28.092Z,0
2019-03-06T04:10:28.195Z,0
2019-03-06T04:11:28.516Z,0
2019-03-06T04:12:28.576Z,0
2019-03-06T04:13:28.790Z,0
2019-03-06T04:14:29.838Z,0
2019-03-06T04:15:32.303Z,0
2019-03-06T04:16:32.080Z,0
2019-03-06T04:17:32.885Z,0
2019-03-06T04:18:35.059Z,0
2019-03-06T04:19:34.852Z,0
2019-03-06T04:20:35.645Z,0
2019-03-06T04:21:37.254Z,0
2019-03-06T04:22:38.307Z,0
2019-03-06T04:23:39.219Z,0
2019-03-06T04:24:38.984Z,0
2019-03-06T04:25:40.309Z,0
2019-03-06T04:26:41.617Z,0
2019-03-06T04:27:42.513Z,0
2019-03-06T04:28:43.176Z,0
2019-03-06T04:29:43.902Z,0
2019-03-06T04:30:44.976Z,0
2019-03-06T04:31:46.309Z,0
2019-03-06T04:32:46.913Z,0
2019-03-06T04:33:48.797Z,0
2019-03-06T04:34:48.850Z,0
2019-03-06T04:35:49.899Z,0
2019-03-06T04:36:51.234Z,0
2019-03-06T04:37:51.840Z,0
2019-03-06T04:38:52.313Z,0
2019-03-06T04:39:52.788Z,0
2019-03-06T04:40:53.539Z,0
2019-03-06T04:41:54.027Z,0
2019-03-06T04:42:54.777Z,0
2019-03-06T04:43:55.245Z,0
2019-03-06T04:44:56.809Z,0
2019-03-06T04:45:57.566Z,0
2019-03-06T04:46:58.596Z,0
2019-03-06T04:48:00.849Z,0
2019-03-06T04:49:00.706Z,0
2019-03-06T04:50:01.902Z,0
2019-03-06T04:51:02.510Z,0
2019-03-06T04:52:02.983Z,0
2019-03-06T04:53:03.750Z,0
2019-03-06T04:54:04.254Z,0
2019-03-06T04:55:05.007Z,0
2019-03-06T04:56:05.482Z,0
2019-03-06T04:57:06.246Z,0
2019-03-06T04:58:08.475Z,0
2019-03-06T04:59:08.199Z,0
2019-03-06T05:00:08.549Z,0
2019-03-06T05:01:09.029Z,0
2019-03-06T05:02:09.516Z,0
2019-03-06T05:03:10.263Z,0
2019-03-06T05:04:11.616Z,0
2019-03-06T05:05:11.658Z,0
2019-03-06T05:06:12.424Z,0
2019-03-06T05:07:13.878Z,0
2019-03-06T05:08:14.233Z,0
2019-03-06T05:09:15.003Z,0
2019-03-06T05:10:15.527Z,0
2019-03-06T05:11:16.293Z,0
2019-03-06T05:12:17.599Z,0
2019-03-06T05:13:18.631Z,0
2019-03-06T05:14:18.661Z,0
2019-03-06T05:15:19.700Z,0
2019-03-06T05:16:20.735Z,4
2019-03-06T05:17:22.344Z,4
2019-03-06T05:18:22.101Z,0
2019-03-06T05:19:22.858Z,0
2019-03-06T05:20:23.364Z,4
2019-03-06T05:21:23.595Z,4
2019-03-06T05:22:24.345Z,0
2019-03-06T05:23:24.825Z,4
2019-03-06T05:24:25.059Z,4
2019-03-06T05:25:25.866Z,4
2019-03-06T05:26:28.022Z,8
2019-03-06T05:27:28.211Z,4
2019-03-06T05:28:29.176Z,8
2019-03-06T05:29:29.231Z,12
2019-03-06T05:30:29.768Z,12
2019-03-06T05:31:30.522Z,12
2019-03-06T05:32:31.008Z,16
2019-03-06T05:33:31.758Z,24
2019-03-06T05:34:32.234Z,28
2019-03-06T05:35:33.564Z,32
2019-03-06T05:36:36.131Z,36
2019-03-06T05:37:35.229Z,40
2019-03-06T05:38:35.893Z,40
2019-03-06T05:39:36.372Z,48
2019-03-06T05:40:37.161Z,52
2019-03-06T05:41:37.933Z,60
2019-03-06T05:42:38.126Z,68
2019-03-06T05:43:38.597Z,76
2019-03-06T05:44:39.067Z,92
2019-03-06T05:45:39.819Z,104
2019-03-06T05:46:42.029Z,120
2019-03-06T05:47:41.681Z,144
2019-03-06T05:48:42.187Z,164
2019-03-06T05:49:42.669Z,192
2019-03-06T05:50:43.144Z,220
2019-03-06T05:51:43.916Z,252
2019-03-06T05:52:44.385Z,280
2019-03-06T05:53:45.139Z,312
2019-03-06T05:54:45.172Z,348
2019-03-06T05:55:45.651Z,384
2019-03-06T05:56:45.880Z,424
2019-03-06T05:57:46.825Z,468
2019-03-06T05:58:47.500Z,516
2019-03-06T05:59:47.973Z,568
2019-03-06T06:00:49.015Z,620
2019-03-06T06:01:49.774Z,672
2019-03-06T06:02:50.811Z,728
2019-03-06T06:03:51.571Z,784
2019-03-06T06:04:52.321Z,844
2019-03-06T06:05:53.095Z,900
2019-03-06T06:06:53.323Z,956
2019-03-06T06:07:53.852Z,1016
2019-03-06T06:08:55.073Z,1080
2019-03-06T06:09:55.280Z,1144
2019-03-06T06:10:56.604Z,1216
2019-03-06T06:11:56.802Z,1276
2019-03-06T06:12:57.842Z,1340
2019-03-06T06:13:58.619Z,1404
2019-03-06T06:14:58.856Z,1472
2019-03-06T06:16:01.348Z,1544
2019-03-06T06:17:01.308Z,1668
2019-03-06T06:18:02.400Z,2308
2019-03-06T06:19:03.591Z,2184
2019-03-06T06:20:04.331Z,2144
2019-03-06T06:21:05.369Z,2356
2019-03-06T06:22:06.124Z,2712
2019-03-06T06:23:06.886Z,2960
2019-03-06T06:24:07.931Z,2736
2019-03-06T06:25:09.293Z,3020
2019-03-06T06:26:11.080Z,3104
2019-03-06T06:27:09.878Z,2692
2019-03-06T06:28:10.916Z,3232
2019-03-06T06:29:11.707Z,4448
2019-03-06T06:30:12.788Z,5488
2019-03-06T06:31:13.270Z,6128
2019-03-06T06:32:13.580Z,5172
2019-03-06T06:33:13.787Z,4328
2019-03-06T06:34:14.824Z,5952
2019-03-06T06:35:15.979Z,10184
2019-03-06T06:36:16.326Z,12572
2019-03-06T06:37:16.986Z,11440
2019-03-06T06:38:17.192Z,8780
2019-03-06T06:39:17.902Z,8408
2019-03-06T06:40:18.943Z,7280
2019-03-06T06:41:19.252Z,7744
2019-03-06T06:42:19.565Z,8572
2019-03-06T06:43:20.443Z,6124
2019-03-06T06:44:20.224Z,5032
2019-03-06T06:45:22.157Z,4968
2019-03-06T06:46:22.073Z,4348
2019-03-06T06:47:22.401Z,4380
2019-03-06T06:48:23.450Z,4692
2019-03-06T06:49:23.667Z,5676
2019-03-06T06:50:24.164Z,6492
2019-03-06T06:51:24.930Z,7320
2019-03-06T06:52:25.135Z,7804
2019-03-06T06:53:25.620Z,6692
2019-03-06T06:54:26.683Z,7100
2019-03-06T06:55:29.225Z,7172
2019-03-06T06:56:27.748Z,5716
2019-03-06T06:57:28.502Z,5284
2019-03-06T06:58:32.966Z,6620
2019-03-06T06:59:34.215Z,6084
2019-03-06T07:00:34.978Z,6896
2019-03-06T07:01:35.181Z,12216
2019-03-06T07:02:35.946Z,16384
2019-03-06T07:03:37.540Z,18880
2019-03-06T07:04:38.238Z,14840
2019-03-06T07:05:40.208Z,11864
2019-03-06T07:06:41.766Z,9472
2019-03-06T07:07:41.454Z,7996
2019-03-06T07:08:41.829Z,8816
2019-03-06T07:09:42.038Z,10368
2019-03-06T07:10:42.568Z,11924
2019-03-06T07:11:43.933Z,13200
2019-03-06T07:12:44.688Z,11680
2019-03-06T07:13:45.454Z,10788
2019-03-06T07:14:46.248Z,11028
2019-03-06T07:15:46.728Z,11240
2019-03-06T07:16:48.359Z,10552
2019-03-06T07:17:48.356Z,8332
2019-03-06T07:18:48.840Z,5360
2019-03-06T07:19:50.184Z,4992
2019-03-06T07:20:50.754Z,5496
2019-03-06T07:21:51.323Z,8296
2019-03-06T07:22:52.391Z,12320
2019-03-06T07:23:52.992Z,11148
2019-03-06T07:24:53.889Z,14508
2019-03-06T07:25:55.499Z,24512
2019-03-06T07:26:57.084Z,32704
2019-03-06T07:27:56.635Z,42144
2019-03-06T07:28:57.486Z,43616
2019-03-06T07:29:57.692Z,43392
2019-03-06T07:30:58.834Z,46368
2019-03-06T07:31:59.038Z,48192
2019-03-06T07:32:59.687Z,47744
2019-03-06T07:34:01.304Z,47296
2019-03-06T07:35:02.234Z,44800
2019-03-06T07:36:02.293Z,49184
2019-03-06T07:37:04.296Z,49152
2019-03-06T07:38:04.906Z,37568
2019-03-06T07:39:05.671Z,16480
2019-03-06T07:40:05.908Z,7480
2019-03-06T07:41:06.958Z,12576
2019-03-06T07:42:07.724Z,22304
2019-03-06T07:43:08.489Z,23392
2019-03-06T07:44:08.926Z,33824
2019-03-06T07:45:10.246Z,47424
2019-03-06T07:46:10.902Z,55520
2019-03-06T07:47:11.983Z,55584
2019-03-06T07:48:12.864Z,51488
2019-03-06T07:49:13.977Z,40160
2019-03-06T07:50:13.692Z,32608
2019-03-06T07:51:14.464Z,33312
2019-03-06T07:52:15.578Z,44960
2019-03-06T07:53:16.073Z,37536
2019-03-06T07:54:16.673Z,29888
2019-03-06T07:55:17.192Z,31136
2019-03-06T07:56:17.854Z,27200
2019-03-06T07:57:18.751Z,23392
2019-03-06T07:58:19.530Z,17728
2019-03-06T07:59:19.576Z,17600
2019-03-06T08:00:20.931Z,22048
2019-03-06T08:01:20.903Z,21824
2019-03-06T08:02:21.271Z,19104
2019-03-06T08:03:22.598Z,19200
2019-03-06T08:04:22.861Z,23872
2019-03-06T08:05:23.230Z,23360
2019-03-06T08:06:24.448Z,24032
2019-03-06T08:07:25.852Z,20896
2019-03-06T08:08:26.947Z,18176
2019-03-06T08:09:28.377Z,22336
2019-03-06T08:10:28.985Z,32352
2019-03-06T08:11:29.195Z,36704
2019-03-06T08:12:30.027Z,34816
2019-03-06T08:13:30.809Z,35968
2019-03-06T08:14:31.590Z,36864
2019-03-06T08:15:32.242Z,37952
2019-03-06T08:16:32.547Z,40352
2019-03-06T08:17:33.611Z,34880
2019-03-06T08:18:35.279Z,30848
2019-03-06T08:19:35.816Z,35456
2019-03-06T08:20:36.338Z,40320
2019-03-06T08:21:36.836Z,33504
2019-03-06T08:22:37.604Z,29792
2019-03-06T08:23:37.820Z,19744
2019-03-06T08:24:39.157Z,17056
2019-03-06T08:25:40.202Z,18688
2019-03-06T08:26:41.033Z,22176
2019-03-06T08:27:41.671Z,16960
2019-03-06T08:28:43.050Z,22336
2019-03-06T08:29:42.647Z,24256
2019-03-06T08:30:45.266Z,17536
2019-03-06T08:31:46.602Z,13068
2019-03-06T08:32:46.862Z,13476
2019-03-06T08:33:48.194Z,14272
2019-03-06T08:34:48.517Z,15520
2019-03-06T08:35:49.325Z,15044
2019-03-06T08:36:50.101Z,13844
2019-03-06T08:37:51.706Z,12940
2019-03-06T08:38:52.241Z,11792
2019-03-06T08:39:54.311Z,9856
2019-03-06T08:41:03.498Z,9800
2019-03-06T08:41:09.590Z,9912
2019-03-06T08:41:15.445Z,9984
2019-03-06T08:42:15.859Z,12196
2019-03-06T08:43:16.423Z,15968
2019-03-06T08:44:16.218Z,13624
2019-03-06T08:45:16.982Z,10672
2019-03-06T08:46:17.747Z,10900
2019-03-06T08:47:18.254Z,14664
2019-03-06T08:48:19.304Z,20128
2019-03-06T08:49:18.806Z,25248
2019-03-06T08:50:19.579Z,27808
2019-03-06T08:51:19.839Z,27360
2019-03-06T08:52:22.940Z,24896
2019-03-06T08:53:22.490Z,21248
2019-03-06T08:54:22.800Z,20416
2019-03-06T08:55:23.903Z,22688
2019-03-06T08:56:23.967Z,24352
2019-03-06T08:57:24.730Z,24800
2019-03-06T08:58:25.775Z,28160
2019-03-06T08:59:25.832Z,26656
2019-03-06T09:00:26.337Z,27168
2019-03-06T09:01:27.427Z,28544
2019-03-06T09:02:29.267Z,28096
2019-03-06T09:03:29.313Z,24672
2019-03-06T09:04:30.363Z,24256
2019-03-06T09:05:33.088Z,26688
2019-03-06T09:06:33.631Z,30912
2019-03-06T09:07:34.810Z,33024
2019-03-06T09:08:34.578Z,32320
2019-03-06T09:09:35.601Z,36640
2019-03-06T09:10:36.868Z,38464
2019-03-06T09:11:36.454Z,35840
2019-03-06T09:12:38.992Z,38720
2019-03-06T09:13:38.502Z,35104
2019-03-06T09:14:39.876Z,27552
2019-03-06T09:15:40.481Z,32160
2019-03-06T09:16:41.254Z,33504
2019-03-06T09:17:42.029Z,24832
2019-03-06T09:18:42.517Z,16320
2019-03-06T09:19:43.014Z,22144
2019-03-06T09:20:43.604Z,28832
2019-03-06T09:21:44.112Z,25056
2019-03-06T09:22:45.949Z,20160
2019-03-06T09:23:45.327Z,15528
2019-03-06T09:24:46.100Z,12404
2019-03-06T09:25:46.874Z,11636
2019-03-06T09:26:48.009Z,11400
2019-03-06T09:27:48.786Z,13044
2019-03-06T09:28:49.280Z,15212
2019-03-06T09:29:49.779Z,16512
2019-03-06T09:30:50.426Z,16416
2019-03-06T09:31:52.106Z,14960
2019-03-06T09:32:52.874Z,14512
2019-03-06T09:33:52.938Z,18080
2019-03-06T09:34:53.706Z,19232
2019-03-06T09:35:54.485Z,16192
2019-03-06T09:36:55.128Z,12356
2019-03-06T09:37:55.824Z,12980
2019-03-06T09:38:56.907Z,19616
2019-03-06T09:39:57.410Z,31072
2019-03-06T09:40:58.996Z,46112
2019-03-06T09:41:59.949Z,45216
2019-03-06T09:43:01.093Z,39040
2019-03-06T09:44:01.578Z,39072
2019-03-06T09:45:02.846Z,40064
2019-03-06T09:46:04.611Z,43808
2019-03-06T09:47:04.533Z,42656
2019-03-06T09:48:04.851Z,39648
2019-03-06T09:49:18.221Z,43296
2019-03-06T09:50:17.181Z,37760
2019-03-06T09:51:17.392Z,28896
2019-03-06T09:52:18.130Z,16768
2019-03-06T09:53:19.258Z,16192
2019-03-06T09:54:21.709Z,21376
2019-03-06T09:55:21.645Z,28544
2019-03-06T09:56:22.435Z,31872
2019-03-06T09:57:23.524Z,24352
2019-03-06T09:58:24.530Z,20224
2019-03-06T09:59:25.014Z,19232
2019-03-06T10:00:25.638Z,21824
2019-03-06T10:01:27.091Z,23712
2019-03-06T10:02:27.137Z,33056
2019-03-06T10:03:27.917Z,38880
2019-03-06T10:04:29.574Z,35520
2019-03-06T10:05:29.517Z,29376
2019-03-06T10:06:30.073Z,33312
2019-03-06T10:07:31.125Z,44544
2019-03-06T10:08:31.622Z,39488
2019-03-06T10:09:32.397Z,38432
2019-03-06T10:10:33.159Z,39488
2019-03-06T10:11:33.924Z,36864
2019-03-06T10:12:34.414Z,34752
2019-03-06T10:13:52.037Z,42016
2019-03-06T10:14:01.126Z,37120
2019-03-06T10:14:11.832Z,37504
2019-03-06T10:14:22.295Z,36096
2019-03-06T10:14:28.813Z,32096
2019-03-06T10:15:27.224Z,41504
2019-03-06T10:16:28.005Z,36864
2019-03-06T10:17:30.948Z,45184
2019-03-06T10:18:29.008Z,36480
2019-03-06T10:19:31.934Z,28768
2019-03-06T10:20:32.716Z,22880
2019-03-06T10:21:32.515Z,23616
2019-03-06T10:22:34.801Z,29056
2019-03-06T10:23:33.595Z,46208
2019-03-06T10:24:34.248Z,48864
2019-03-06T10:25:36.161Z,44320
2019-03-06T10:26:36.789Z,42912
2019-03-06T10:27:37.111Z,42624
2019-03-06T10:28:40.256Z,41344
2019-03-06T10:29:39.932Z,46560
2019-03-06T10:30:40.568Z,39936
2019-03-06T10:31:41.147Z,27744
2019-03-06T10:32:42.880Z,24576
2019-03-06T10:33:44.653Z,27360
2019-03-06T10:34:44.064Z,24864
2019-03-06T10:35:45.680Z,22272
2019-03-06T10:36:45.695Z,24000
2019-03-06T10:37:45.679Z,22912
2019-03-06T10:38:47.944Z,30240
2019-03-06T10:39:47.908Z,31840
2019-03-06T10:40:49.307Z,30016
2019-03-06T10:41:49.752Z,17824
2019-03-06T10:42:50.764Z,30560
2019-03-06T10:43:51.994Z,27008
2019-03-06T10:44:52.709Z,30912
2019-03-06T10:45:53.094Z,33120
2019-03-06T10:46:53.483Z,35904
2019-03-06T10:47:54.162Z,35424
2019-03-06T10:48:55.445Z,32928
2019-03-06T10:49:55.396Z,34688
2019-03-06T10:50:56.107Z,34624
2019-03-06T10:51:56.429Z,32288
2019-03-06T10:52:57.710Z,29728
2019-03-06T10:53:58.120Z,28928
2019-03-06T10:54:59.800Z,27648
2019-03-06T10:56:00.974Z,27936
2019-03-06T10:57:01.756Z,25728
2019-03-06T10:58:01.778Z,25792
2019-03-06T10:59:02.876Z,26240
2019-03-06T11:00:03.425Z,25056
2019-03-06T11:01:04.269Z,24288
2019-03-06T11:02:05.614Z,24320
2019-03-06T11:03:07.797Z,24064
2019-03-06T11:04:07.644Z,22784
2019-03-06T11:05:06.953Z,23104
2019-03-06T11:06:14.341Z,21472
2019-03-06T11:06:23.540Z,21664
2019-03-06T11:06:34.193Z,20768
2019-03-06T11:06:44.592Z,20672
2019-03-06T11:06:52.547Z,20992
2019-03-06T11:07:03.437Z,21248
2019-03-06T11:07:11.079Z,21184
2019-03-06T11:08:16.601Z,19232
2019-03-06T11:08:21.207Z,19008
2019-03-06T11:09:23.288Z,16448
2019-03-06T11:10:38.623Z,17696
2019-03-06T11:10:56.268Z,17088
2019-03-06T11:11:57.021Z,15680
2019-03-06T11:12:57.221Z,14756
2019-03-06T11:14:07.812Z,14652
2019-03-06T11:15:09.127Z,14584
2019-03-06T11:16:10.051Z,15200
2019-03-06T11:17:12.138Z,15328
2019-03-06T11:18:13.155Z,16576
2019-03-06T11:19:12.292Z,16096
2019-03-06T11:20:14.262Z,16992
2019-03-06T11:21:18.673Z,17312
2019-03-06T11:21:24.688Z,17216
2019-03-06T11:22:24.741Z,16064
2019-03-06T11:23:26.445Z,16800
2019-03-06T11:24:27.600Z,17664
2019-03-06T11:25:28.104Z,22208
2019-03-06T11:26:28.735Z,20704
2019-03-06T11:27:32.135Z,19936
2019-03-06T11:28:30.380Z,21440
2019-03-06T11:29:30.592Z,21728
2019-03-06T11:30:30.733Z,19904
2019-03-06T11:31:33.233Z,18240
2019-03-06T11:32:32.599Z,16640
2019-03-06T11:33:33.212Z,16384
2019-03-06T11:34:35.008Z,14784
2019-03-06T11:35:35.907Z,14636
2019-03-06T11:36:37.052Z,12920
2019-03-06T11:37:40.730Z,10212
2019-03-06T11:37:51.998Z,10084
2019-03-06T11:38:01.625Z,9996
2019-03-06T11:38:13.220Z,9988
2019-03-06T11:38:23.609Z,9816
2019-03-06T11:38:32.211Z,9724
2019-03-06T11:38:41.749Z,9804
2019-03-06T11:38:50.259Z,9828
2019-03-06T11:39:49.834Z,11024
2019-03-06T11:40:50.127Z,12496
2019-03-06T11:41:50.965Z,12236
2019-03-06T11:42:57.176Z,11880
2019-03-06T11:43:06.616Z,11976
2019-03-06T11:43:16.991Z,12136
2019-03-06T11:43:27.610Z,11868
2019-03-06T11:43:36.204Z,11740
2019-03-06T11:44:33.322Z,11684
2019-03-06T11:45:39.698Z,11476
2019-03-06T11:45:49.072Z,11280
2019-03-06T11:46:00.320Z,11048
2019-03-06T11:46:08.158Z,10932
2019-03-06T11:47:09.667Z,9976
2019-03-06T11:48:06.964Z,9500
2019-03-06T11:49:10.146Z,9208
2019-03-06T11:50:09.381Z,8772
2019-03-06T11:51:15.536Z,8508
2019-03-06T11:51:21.982Z,8468
2019-03-06T11:52:25.393Z,8092
2019-03-06T11:53:22.009Z,7752
2019-03-06T11:54:25.958Z,7604
2019-03-06T11:55:24.466Z,7436
2019-03-06T11:56:26.675Z,7384
2019-03-06T11:57:27.189Z,7336
2019-03-06T11:58:27.412Z,7300
2019-03-06T11:59:28.340Z,7368
2019-03-06T12:00:28.762Z,7388
2019-03-06T12:01:29.076Z,7464
2019-03-06T12:02:31.015Z,7564
2019-03-06T12:03:31.201Z,7716
2019-03-06T12:04:32.076Z,8104
2019-03-06T12:05:37.600Z,8400
2019-03-06T12:06:39.789Z,8400
2019-03-06T12:06:50.542Z,8476
2019-03-06T12:07:00.752Z,8560
2019-03-06T12:07:10.310Z,8664
2019-03-06T12:07:16.346Z,8804
2019-03-06T12:08:15.833Z,9416
2019-03-06T12:09:18.671Z,9420
2019-03-06T12:10:17.588Z,9116
2019-03-06T12:11:20.426Z,9284
2019-03-06T12:12:19.544Z,9308
2019-03-06T12:13:20.422Z,8920
2019-03-06T12:14:20.710Z,8896
2019-03-06T12:15:21.580Z,8828
2019-03-06T12:16:22.217Z,8908
2019-03-06T12:17:22.856Z,9432
2019-03-06T12:18:24.021Z,9616
2019-03-06T12:19:25.947Z,9800
2019-03-06T12:20:25.917Z,9572
2019-03-06T12:21:26.495Z,9484
2019-03-06T12:22:27.676Z,9240
2019-03-06T12:23:28.751Z,9108
2019-03-06T12:24:28.847Z,9156
2019-03-06T12:25:31.102Z,8756
2019-03-06T12:26:32.105Z,8616
2019-03-06T12:27:32.081Z,8080
2019-03-06T12:28:34.481Z,7620
2019-03-06T12:29:33.361Z,7600
2019-03-06T12:30:34.283Z,7440
2019-03-06T12:31:35.487Z,7460
2019-03-06T12:32:38.831Z,7604
2019-03-06T12:33:38.420Z,7764
2019-03-06T12:34:38.852Z,7772
2019-03-06T12:35:44.350Z,7356
2019-03-06T12:35:54.165Z,7304
2019-03-06T12:36:02.383Z,7344
2019-03-06T12:36:13.496Z,7552
2019-03-06T12:37:10.495Z,7116
2019-03-06T12:38:12.685Z,7008
2019-03-06T12:39:16.261Z,6916
2019-03-06T12:40:22.101Z,7084
2019-03-06T12:40:30.370Z,7060
2019-03-06T12:40:37.368Z,7068
2019-03-06T12:41:35.835Z,6932
2019-03-06T12:42:36.899Z,6648
2019-03-06T12:43:37.693Z,6504
2019-03-06T12:44:42.313Z,6428
2019-03-06T12:45:45.496Z,6192
2019-03-06T12:45:52.164Z,6192
2019-03-06T12:46:50.290Z,6152
2019-03-06T12:47:57.628Z,6212
2019-03-06T12:48:00.926Z,6212
2019-03-06T12:49:04.931Z,6404
2019-03-06T12:50:09.258Z,6516
2019-03-06T12:50:13.086Z,6528
2019-03-06T12:50:57.904Z,6552
2019-03-06T12:51:57.534Z,6188
2019-03-06T12:52:58.194Z,6140
2019-03-06T12:53:59.008Z,6140
2019-03-06T12:54:59.790Z,5908
2019-03-06T12:56:00.387Z,5748
2019-03-06T12:57:08.043Z,5644
2019-03-06T12:57:14.475Z,5636
2019-03-06T12:58:13.143Z,5592
2019-03-06T12:59:19.076Z,5648
2019-03-06T12:59:27.259Z,5660
2019-03-06T13:00:26.740Z,5676
2019-03-06T13:01:25.846Z,5604
2019-03-06T13:02:26.368Z,5564
2019-03-06T13:03:32.938Z,5580
2019-03-06T13:03:42.192Z,5608
2019-03-06T13:03:54.352Z,5648
2019-03-06T13:04:03.653Z,5660
2019-03-06T13:04:13.953Z,5672
2019-03-06T13:04:24.253Z,5680
2019-03-06T13:04:34.131Z,5704
2019-03-06T13:04:49.539Z,5744
2019-03-06T13:05:49.588Z,5792
2019-03-06T13:06:50.156Z,5888
2019-03-06T13:07:50.678Z,5756
2019-03-06T13:08:53.274Z,5812
2019-03-06T13:09:53.386Z,5924
2019-03-06T13:10:54.811Z,6144
2019-03-06T13:11:56.822Z,6420
2019-03-06T13:12:56.620Z,6656